createdAt,value
2018-08-12T00:00:43.088Z,5.64
2018-08-12T00:02:36.079Z,5.64
2018-08-12T00:03:36.132Z,5.16
2018-08-12T00:05:29.121Z,4.39
2018-08-12T00:06:29.183Z,4.58
2018-08-12T00:08:22.177Z,4.21
2018-08-12T00:09:22.231Z,4.78
2018-08-12T00:11:15.219Z,4.49
2018-08-12T00:12:15.282Z,4.01
2018-08-12T00:14:08.282Z,3.72
2018-08-12T00:15:08.377Z,3.82
2018-08-12T00:17:01.326Z,3.06
2018-08-12T00:18:01.381Z,3.44
2018-08-12T00:19:54.368Z,3.92
2018-08-12T00:20:54.435Z,4.20
2018-08-12T00:22:47.425Z,4.01
2018-08-12T00:23:47.478Z,3.72
2018-08-12T00:25:40.465Z,3.72
2018-08-12T00:26:40.527Z,3.34
2018-08-12T00:28:33.524Z,3.34
2018-08-12T00:29:33.577Z,3.53
2018-08-12T00:31:26.563Z,3.44
2018-08-12T00:32:26.625Z,2.86
2018-08-12T00:34:19.621Z,3.72
2018-08-12T00:35:19.674Z,3.82
2018-08-12T00:37:12.672Z,3.63
2018-08-12T00:38:12.728Z,3.25
2018-08-12T00:40:05.713Z,3.72
2018-08-12T00:41:05.775Z,3.15
2018-08-12T00:42:58.770Z,2.77
2018-08-12T00:43:58.825Z,2.67
2018-08-12T00:45:51.825Z,2.19
2018-08-12T00:46:51.888Z,2.58
2018-08-12T00:48:44.883Z,2.77
2018-08-12T00:49:44.939Z,3.06
2018-08-12T00:51:37.932Z,2.39
2018-08-12T00:52:37.994Z,2.29
2018-08-12T00:54:30.985Z,2.67
2018-08-12T00:55:31.038Z,2.96
2018-08-12T00:57:24.034Z,2.67
2018-08-12T00:58:24.088Z,2.48
2018-08-12T01:00:17.085Z,1.91
2018-08-12T01:01:17.144Z,2.10
2018-08-12T01:03:10.141Z,3.15
2018-08-12T01:04:10.194Z,2.86
2018-08-12T01:06:03.180Z,2.58
2018-08-12T01:07:03.251Z,2.67
2018-08-12T01:08:56.236Z,2.10
2018-08-12T01:09:56.298Z,1.72
2018-08-12T01:11:49.285Z,1.72
2018-08-12T01:12:49.342Z,2.00
2018-08-12T01:14:42.337Z,2.58
2018-08-12T01:15:42.433Z,1.53
2018-08-12T01:17:35.394Z,1.34
2018-08-12T01:18:35.435Z,0.95
2018-08-12T01:20:28.434Z,0.95
2018-08-12T01:21:28.496Z,0.85
2018-08-12T01:23:21.490Z,1.24
2018-08-12T01:24:21.546Z,1.14
2018-08-12T01:26:14.560Z,1.34
2018-08-12T01:27:14.597Z,1.24
2018-08-12T01:29:07.589Z,0.95
2018-08-12T01:30:07.645Z,0.38
2018-08-12T01:32:00.631Z,0.00
2018-08-12T01:33:00.690Z,0.00
2018-08-12T01:34:53.685Z,0.00
2018-08-12T01:35:53.752Z,0.00
2018-08-12T01:37:46.735Z,0.00
2018-08-12T01:38:46.790Z,0.00
2018-08-12T01:40:39.788Z,0.48
2018-08-12T01:41:39.842Z,0.00
2018-08-12T01:43:32.834Z,0.00
2018-08-12T01:44:32.889Z,0.00
2018-08-12T01:46:25.876Z,0.00
2018-08-12T01:47:25.936Z,0.00
2018-08-12T01:49:18.932Z,0.00
2018-08-12T01:50:18.989Z,0.00
2018-08-12T01:52:11.974Z,0.00
2018-08-12T01:53:12.036Z,0.00
2018-08-12T01:55:05.031Z,0.00
2018-08-12T01:56:05.084Z,0.00
2018-08-12T01:57:58.070Z,0.00
2018-08-12T01:58:58.131Z,0.00
2018-08-12T02:00:51.123Z,0.00
2018-08-12T02:01:51.179Z,0.00
2018-08-12T02:03:44.173Z,0.00
2018-08-12T02:04:44.230Z,0.00
2018-08-12T02:06:37.215Z,0.00
2018-08-12T02:07:37.295Z,0.00
2018-08-12T02:09:30.272Z,0.00
2018-08-12T02:10:30.323Z,0.00
2018-08-12T02:12:23.316Z,0.00
2018-08-12T02:13:23.369Z,0.00
2018-08-12T02:15:16.363Z,0.00
2018-08-12T02:16:16.419Z,0.00
2018-08-12T02:18:09.408Z,0.00
2018-08-12T02:19:09.465Z,0.00
2018-08-12T02:21:02.458Z,0.00
2018-08-12T02:22:02.509Z,0.00
2018-08-12T02:23:55.501Z,0.00
2018-08-12T02:24:55.557Z,0.00
2018-08-12T02:26:48.542Z,0.00
2018-08-12T02:27:48.602Z,0.00
2018-08-12T02:29:41.595Z,0.00
2018-08-12T02:30:41.652Z,0.00
2018-08-12T02:32:34.641Z,0.00
2018-08-12T02:33:34.698Z,0.00
2018-08-12T02:35:27.693Z,0.00
2018-08-12T02:36:27.744Z,0.00
2018-08-12T02:38:20.740Z,0.00
2018-08-12T02:39:20.793Z,0.00
2018-08-12T02:41:14.298Z,0.00
2018-08-12T02:42:14.349Z,0.00
2018-08-12T02:44:07.343Z,0.00
2018-08-12T02:45:07.395Z,0.00
2018-08-12T02:47:00.381Z,0.00
2018-08-12T02:48:00.444Z,0.00
2018-08-12T02:49:53.434Z,0.00
2018-08-12T02:50:53.516Z,0.00
2018-08-12T02:52:46.484Z,0.00
2018-08-12T02:53:46.536Z,0.00
2018-08-12T02:55:39.531Z,0.00
2018-08-12T02:56:39.583Z,0.00
2018-08-12T02:58:32.574Z,0.00
2018-08-12T02:59:32.629Z,0.00
2018-08-12T03:01:25.628Z,0.00
2018-08-12T03:02:25.679Z,0.00
2018-08-12T03:04:18.674Z,0.00
2018-08-12T03:05:18.725Z,0.00
2018-08-12T03:07:11.714Z,0.00
2018-08-12T03:08:11.770Z,0.00
2018-08-12T03:10:04.765Z,0.00
2018-08-12T03:11:04.817Z,0.00
2018-08-12T03:12:57.801Z,0.00
2018-08-12T03:13:57.863Z,0.00
2018-08-12T03:15:50.856Z,0.00
2018-08-12T03:16:50.906Z,0.00
2018-08-12T03:18:43.892Z,0.00
2018-08-12T03:19:43.950Z,0.00
2018-08-12T03:21:36.946Z,0.00
2018-08-12T03:22:37.036Z,0.00
2018-08-12T03:24:29.993Z,0.00
2018-08-12T03:25:30.047Z,0.00
2018-08-12T03:27:23.031Z,0.00
2018-08-12T03:28:23.091Z,0.00
2018-08-12T03:30:16.238Z,0.00
2018-08-12T03:31:16.135Z,0.00
2018-08-12T03:33:09.122Z,0.00
2018-08-12T03:34:09.183Z,0.00
2018-08-12T03:36:02.177Z,0.00
2018-08-12T03:37:02.227Z,0.00
2018-08-12T03:38:55.213Z,0.00
2018-08-12T03:39:55.275Z,0.00
2018-08-12T03:41:48.774Z,0.00
2018-08-12T03:42:48.827Z,0.00
2018-08-12T03:44:41.821Z,0.00
2018-08-12T03:45:41.872Z,0.00
2018-08-12T03:47:34.860Z,0.00
2018-08-12T03:48:34.921Z,0.00
2018-08-12T03:50:27.914Z,0.00
2018-08-12T03:51:27.967Z,0.00
2018-08-12T03:53:20.956Z,0.00
2018-08-12T03:54:21.015Z,0.00
2018-08-12T03:56:14.009Z,0.00
2018-08-12T03:57:14.058Z,0.00
2018-08-12T03:59:07.046Z,0.00
2018-08-12T04:00:07.107Z,0.00
2018-08-12T04:02:00.101Z,0.00
2018-08-12T04:03:00.153Z,0.00
2018-08-12T04:04:53.146Z,0.00
2018-08-12T04:05:53.199Z,0.00
2018-08-12T04:07:46.186Z,0.00
2018-08-12T04:08:46.247Z,0.00
2018-08-12T04:10:39.240Z,0.00
2018-08-12T04:11:39.291Z,0.00
2018-08-12T04:13:32.280Z,0.00
2018-08-12T04:14:32.338Z,0.00
2018-08-12T04:16:25.337Z,0.00
2018-08-12T04:17:25.393Z,0.00
2018-08-12T04:19:18.381Z,0.00
2018-08-12T04:20:18.444Z,0.00
2018-08-12T04:22:11.452Z,0.00
2018-08-12T04:23:11.510Z,0.00
2018-08-12T04:25:04.503Z,0.00
2018-08-12T04:26:04.554Z,0.00
2018-08-12T04:27:57.539Z,0.00
2018-08-12T04:28:57.601Z,0.00
2018-08-12T04:30:50.593Z,0.00
2018-08-12T04:31:50.645Z,0.00
2018-08-12T04:33:43.637Z,0.00
2018-08-12T04:34:43.693Z,0.00
2018-08-12T04:36:36.696Z,0.00
2018-08-12T04:37:36.748Z,0.00
2018-08-12T04:39:29.734Z,0.00
2018-08-12T04:40:29.792Z,0.00
2018-08-12T04:42:22.787Z,0.00
2018-08-12T04:43:22.837Z,0.00
2018-08-12T04:45:15.829Z,0.00
2018-08-12T04:46:15.885Z,0.00
2018-08-12T04:48:08.868Z,0.00
2018-08-12T04:49:08.930Z,0.00
2018-08-12T04:51:01.924Z,0.00
2018-08-12T04:52:01.976Z,0.00
2018-08-12T04:53:54.963Z,0.00
2018-08-12T04:54:55.022Z,0.00
2018-08-12T04:56:48.016Z,0.00
2018-08-12T04:57:48.066Z,0.00
2018-08-12T04:59:41.054Z,0.00
2018-08-12T05:00:41.115Z,0.00
2018-08-12T05:02:34.106Z,0.00
2018-08-12T05:03:34.162Z,0.00
2018-08-12T05:05:27.152Z,0.00
2018-08-12T05:06:27.206Z,0.00
2018-08-12T05:08:20.190Z,0.00
2018-08-12T05:09:20.253Z,0.00
2018-08-12T05:11:13.248Z,0.00
2018-08-12T05:12:13.299Z,0.09
2018-08-12T05:14:06.288Z,0.00
2018-08-12T05:15:06.348Z,0.38
2018-08-12T05:16:59.342Z,0.00
2018-08-12T05:17:59.392Z,0.00
2018-08-12T05:19:52.390Z,0.00
2018-08-12T05:20:52.452Z,0.00
2018-08-12T05:22:45.449Z,0.00
2018-08-12T05:23:45.503Z,0.00
2018-08-12T05:25:38.497Z,0.00
2018-08-12T05:26:38.549Z,0.00
2018-08-12T05:28:31.540Z,0.00
2018-08-12T05:29:31.602Z,0.00
2018-08-12T05:31:24.597Z,0.19
2018-08-12T05:32:24.652Z,0.00
2018-08-12T05:34:17.635Z,0.67
2018-08-12T05:35:17.696Z,0.95
2018-08-12T05:37:10.692Z,2.58
2018-08-12T05:38:10.749Z,2.29
2018-08-12T05:40:03.732Z,3.82
2018-08-12T05:41:03.795Z,4.01
2018-08-12T05:42:56.789Z,4.11
2018-08-12T05:43:56.840Z,3.15
2018-08-12T05:45:49.832Z,4.01
2018-08-12T05:46:49.888Z,5.16
2018-08-12T05:48:42.873Z,5.54
2018-08-12T05:49:42.935Z,4.87
2018-08-12T05:51:35.963Z,5.16
2018-08-12T05:52:35.983Z,5.44
2018-08-12T05:54:28.971Z,6.30
2018-08-12T05:55:29.037Z,6.12
2018-08-12T05:57:22.039Z,6.30
2018-08-12T05:58:22.092Z,6.30
2018-08-12T06:00:15.086Z,9.56
2018-08-12T06:01:15.149Z,9.56
2018-08-12T06:03:08.149Z,9.94
2018-08-12T06:04:08.204Z,11.47
2018-08-12T06:06:01.204Z,11.76
2018-08-12T06:07:01.261Z,14.54
2018-08-12T06:08:54.289Z,15.12
2018-08-12T06:09:54.322Z,13.49
2018-08-12T06:11:47.335Z,20.78
2018-08-12T06:12:47.390Z,18.19
2018-08-12T06:14:40.376Z,20.50
2018-08-12T06:15:40.472Z,25.48
2018-08-12T06:17:33.466Z,34.52
2018-08-12T06:18:33.496Z,48.93
2018-08-12T06:20:26.484Z,69.08
2018-08-12T06:21:26.544Z,74.73
2018-08-12T06:23:19.542Z,76.03
2018-08-12T06:24:19.597Z,74.62
2018-08-12T06:26:12.594Z,69.97
2018-08-12T06:27:12.650Z,68.49
2018-08-12T06:29:05.639Z,64.69
2018-08-12T06:30:05.703Z,62.50
2018-08-12T06:31:58.706Z,60.14
2018-08-12T06:32:58.763Z,56.20
2018-08-12T06:34:51.761Z,50.89
2018-08-12T06:35:51.825Z,50.21
2018-08-12T06:37:44.820Z,51.96
2018-08-12T06:38:44.882Z,52.25
2018-08-12T06:40:37.883Z,49.05
2018-08-12T06:41:37.945Z,48.49
2018-08-12T06:43:30.957Z,48.42
2018-08-12T06:44:31.022Z,47.08
2018-08-12T06:46:24.047Z,45.26
2018-08-12T06:47:24.084Z,44.51
2018-08-12T06:49:17.087Z,43.58
2018-08-12T06:50:17.153Z,42.43
2018-08-12T06:52:10.159Z,41.38
2018-08-12T06:53:10.225Z,41.40
2018-08-12T06:55:03.225Z,40.42
2018-08-12T06:56:03.293Z,39.47
2018-08-12T06:57:56.302Z,38.73
2018-08-12T06:58:56.367Z,37.99
2018-08-12T07:00:49.372Z,36.63
2018-08-12T07:01:49.443Z,36.72
2018-08-12T07:03:42.458Z,35.75
2018-08-12T07:04:42.523Z,35.58
2018-08-12T07:06:35.533Z,35.90
2018-08-12T07:07:35.598Z,37.27
2018-08-12T07:09:28.608Z,38.79
2018-08-12T07:10:28.685Z,38.35
2018-08-12T07:12:21.694Z,37.91
2018-08-12T07:13:21.760Z,39.34
2018-08-12T07:15:14.774Z,39.00
2018-08-12T07:16:14.839Z,37.38
2018-08-12T07:18:07.860Z,35.79
2018-08-12T07:19:07.924Z,34.84
2018-08-12T07:21:00.948Z,32.66
2018-08-12T07:22:01.008Z,33.02
2018-08-12T07:23:54.025Z,31.97
2018-08-12T07:24:54.093Z,31.99
2018-08-12T07:26:47.109Z,31.60
2018-08-12T07:27:47.177Z,31.82
2018-08-12T07:29:40.190Z,29.97
2018-08-12T07:30:40.292Z,29.66
2018-08-12T07:32:33.286Z,31.21
2018-08-12T07:33:33.354Z,32.53
2018-08-12T07:35:26.375Z,33.59
2018-08-12T07:36:26.442Z,33.64
2018-08-12T07:38:19.474Z,32.20
2018-08-12T07:39:19.529Z,31.80
2018-08-12T07:41:12.540Z,33.07
2018-08-12T07:42:12.615Z,32.46
2018-08-12T07:44:05.638Z,32.75
2018-08-12T07:45:05.705Z,32.45
2018-08-12T07:46:58.732Z,33.62
2018-08-12T07:47:58.802Z,33.97
2018-08-12T07:49:51.814Z,34.47
2018-08-12T07:50:51.889Z,34.19
2018-08-12T07:52:44.906Z,32.70
2018-08-12T07:53:44.977Z,32.60
2018-08-12T07:55:38.124Z,33.41
2018-08-12T07:56:38.063Z,34.83
2018-08-12T07:58:31.081Z,35.59
2018-08-12T07:59:31.150Z,36.51
2018-08-12T08:01:24.162Z,37.12
2018-08-12T08:02:24.237Z,35.49
2018-08-12T08:04:17.275Z,33.92
2018-08-12T08:05:17.321Z,33.53
2018-08-12T08:07:10.340Z,33.45
2018-08-12T08:08:10.406Z,33.65
2018-08-12T08:10:03.419Z,31.93
2018-08-12T08:11:03.492Z,31.86
2018-08-12T08:12:56.515Z,29.86
2018-08-12T08:13:56.580Z,30.35
2018-08-12T08:15:49.594Z,29.21
2018-08-12T08:16:49.666Z,30.29
2018-08-12T08:18:42.691Z,33.40
2018-08-12T08:19:42.799Z,34.34
2018-08-12T08:21:35.780Z,33.89
2018-08-12T08:22:35.853Z,33.72
2018-08-12T08:24:28.874Z,31.93
2018-08-12T08:25:29.025Z,30.58
2018-08-12T08:27:21.971Z,30.22
2018-08-12T08:28:22.045Z,30.36
2018-08-12T08:30:15.059Z,32.46
2018-08-12T08:31:15.194Z,32.97
2018-08-12T08:33:08.175Z,31.80
2018-08-12T08:34:08.255Z,31.42
2018-08-12T08:36:01.253Z,30.78
2018-08-12T08:37:01.328Z,30.32
2018-08-12T08:38:54.354Z,27.61
2018-08-12T08:39:54.434Z,28.61
2018-08-12T08:41:47.453Z,28.19
2018-08-12T08:42:47.517Z,28.78
2018-08-12T08:44:41.050Z,28.77
2018-08-12T08:45:41.113Z,29.73
2018-08-12T08:47:34.135Z,29.93
2018-08-12T08:48:34.205Z,28.93
2018-08-12T08:50:27.230Z,28.79
2018-08-12T08:51:27.300Z,28.40
2018-08-12T08:53:20.325Z,30.30
2018-08-12T08:54:20.401Z,30.18
2018-08-12T08:56:13.487Z,31.24
2018-08-12T08:57:13.487Z,31.16
2018-08-12T08:59:06.514Z,30.30
2018-08-12T09:00:06.582Z,30.70
2018-08-12T09:01:59.602Z,31.35
2018-08-12T09:02:59.678Z,32.12
2018-08-12T09:04:52.747Z,31.45
2018-08-12T09:05:52.766Z,31.47
2018-08-12T09:07:45.791Z,30.40
2018-08-12T09:08:46.282Z,30.32
2018-08-12T09:10:38.878Z,29.09
2018-08-12T09:11:38.957Z,29.66
2018-08-12T09:13:31.995Z,29.30
2018-08-12T09:14:32.068Z,29.11
2018-08-12T09:16:25.084Z,28.12
2018-08-12T09:17:25.159Z,28.12
2018-08-12T09:19:18.185Z,29.73
2018-08-12T09:20:18.265Z,29.94
2018-08-12T09:22:11.275Z,28.67
2018-08-12T09:23:11.351Z,29.93
2018-08-12T09:25:04.376Z,30.27
2018-08-12T09:26:04.445Z,32.09
2018-08-12T09:27:57.476Z,34.57
2018-08-12T09:28:57.546Z,35.71
2018-08-12T09:30:50.562Z,37.60
2018-08-12T09:31:50.638Z,37.19
2018-08-12T09:33:43.659Z,38.17
2018-08-12T09:34:43.727Z,39.04
2018-08-12T09:36:36.740Z,41.19
2018-08-12T09:37:36.814Z,42.16
2018-08-12T09:39:29.833Z,40.58
2018-08-12T09:40:29.898Z,41.55
2018-08-12T09:42:22.907Z,42.50
2018-08-12T09:43:22.983Z,42.60
2018-08-12T09:45:16.506Z,43.87
2018-08-12T09:46:16.567Z,43.19
2018-08-12T09:48:09.583Z,43.21
2018-08-12T09:49:09.646Z,42.82
2018-08-12T09:51:02.650Z,43.01
2018-08-12T09:52:02.729Z,43.79
2018-08-12T09:53:55.736Z,43.46
2018-08-12T09:54:55.799Z,44.43
2018-08-12T09:56:48.804Z,45.97
2018-08-12T09:57:48.875Z,44.99
2018-08-12T09:59:41.884Z,48.00
2018-08-12T10:00:41.952Z,46.74
2018-08-12T10:02:34.959Z,45.38
2018-08-12T10:03:35.034Z,45.40
2018-08-12T10:05:28.037Z,45.04
2018-08-12T10:06:28.101Z,42.60
2018-08-12T10:08:21.110Z,41.63
2018-08-12T10:09:21.175Z,42.02
2018-08-12T10:11:14.178Z,42.41
2018-08-12T10:12:14.247Z,42.90
2018-08-12T10:14:07.261Z,42.99
2018-08-12T10:15:07.321Z,44.06
2018-08-12T10:17:00.330Z,42.21
2018-08-12T10:18:00.398Z,42.70
2018-08-12T10:19:53.408Z,43.19
2018-08-12T10:20:53.470Z,42.90
2018-08-12T10:22:46.474Z,42.68
2018-08-12T10:23:46.545Z,44.14
2018-08-12T10:25:39.557Z,43.26
2018-08-12T10:26:39.617Z,44.04
2018-08-12T10:28:32.631Z,44.04
2018-08-12T10:29:32.700Z,45.21
2018-08-12T10:31:25.694Z,42.39
2018-08-12T10:32:25.762Z,42.08
2018-08-12T10:34:18.770Z,43.44
2018-08-12T10:35:18.838Z,44.24
2018-08-12T10:37:11.839Z,45.31
2018-08-12T10:38:11.907Z,42.99
2018-08-12T10:40:04.920Z,46.01
2018-08-12T10:41:04.984Z,45.04
2018-08-12T10:42:57.981Z,46.57
2018-08-12T10:43:58.056Z,45.31
2018-08-12T10:45:51.058Z,44.82
2018-08-12T10:46:51.122Z,44.43
2018-08-12T10:48:44.141Z,44.12
2018-08-12T10:49:44.194Z,44.41
2018-08-12T10:51:37.197Z,44.51
2018-08-12T10:52:37.264Z,45.09
2018-08-12T10:54:30.276Z,45.57
2018-08-12T10:55:30.338Z,45.97
2018-08-12T10:57:23.340Z,44.02
2018-08-12T10:58:23.408Z,44.12
2018-08-12T11:00:16.419Z,45.89
2018-08-12T11:01:16.481Z,44.72
2018-08-12T11:03:09.487Z,45.21
2018-08-12T11:04:09.552Z,45.31
2018-08-12T11:06:02.561Z,47.23
2018-08-12T11:07:02.623Z,46.06
2018-08-12T11:08:55.629Z,44.60
2018-08-12T11:09:55.693Z,46.94
2018-08-12T11:11:48.701Z,46.35
2018-08-12T11:12:48.834Z,46.84
2018-08-12T11:14:41.775Z,44.62
2018-08-12T11:15:41.837Z,46.08
2018-08-12T11:17:34.842Z,45.31
2018-08-12T11:18:34.907Z,45.21
2018-08-12T11:20:27.979Z,45.89
2018-08-12T11:21:27.977Z,45.09
2018-08-12T11:23:20.986Z,45.67
2018-08-12T11:24:21.054Z,46.06
2018-08-12T11:26:14.067Z,47.23
2018-08-12T11:27:14.128Z,44.41
2018-08-12T11:29:07.149Z,46.47
2018-08-12T11:30:07.194Z,45.52
2018-08-12T11:32:00.200Z,45.14
2018-08-12T11:33:00.265Z,45.14
2018-08-12T11:34:53.332Z,44.35
2018-08-12T11:35:53.335Z,45.72
2018-08-12T11:37:46.340Z,43.89
2018-08-12T11:38:46.410Z,42.53
2018-08-12T11:40:39.415Z,43.21
2018-08-12T11:41:39.477Z,42.72
2018-08-12T11:43:32.484Z,43.48
2018-08-12T11:44:32.556Z,42.41
2018-08-12T11:46:25.563Z,43.87
2018-08-12T11:47:25.666Z,45.14
2018-08-12T11:49:18.631Z,44.16
2018-08-12T11:50:18.728Z,45.04
2018-08-12T11:52:11.707Z,45.04
2018-08-12T11:53:11.772Z,45.52
2018-08-12T11:55:04.782Z,46.51
2018-08-12T11:56:04.845Z,44.28
2018-08-12T11:57:57.850Z,45.84
2018-08-12T11:58:57.917Z,44.57
2018-08-12T12:00:50.926Z,43.96
2018-08-12T12:01:50.997Z,44.04
2018-08-12T12:03:43.991Z,45.60
2018-08-12T12:04:44.060Z,45.11
2018-08-12T12:06:37.065Z,47.34
2018-08-12T12:07:37.127Z,45.89
2018-08-12T12:09:30.140Z,43.85
2018-08-12T12:10:30.212Z,45.40
2018-08-12T12:12:23.217Z,46.08
2018-08-12T12:13:23.281Z,45.40
2018-08-12T12:15:16.293Z,46.47
2018-08-12T12:16:16.350Z,45.60
2018-08-12T12:18:09.356Z,45.60
2018-08-12T12:19:09.427Z,45.89
2018-08-12T12:21:02.436Z,44.53
2018-08-12T12:22:02.502Z,45.11
2018-08-12T12:23:55.503Z,45.01
2018-08-12T12:24:55.568Z,48.51
2018-08-12T12:26:48.592Z,45.89
2018-08-12T12:27:48.646Z,46.57
2018-08-12T12:29:41.656Z,47.05
2018-08-12T12:30:41.724Z,45.50
2018-08-12T12:32:34.731Z,49.22
2018-08-12T12:33:34.794Z,46.69
2018-08-12T12:35:27.848Z,46.50
2018-08-12T12:36:27.867Z,46.59
2018-08-12T12:38:20.864Z,45.72
2018-08-12T12:39:20.934Z,45.52
2018-08-12T12:41:13.946Z,46.88
2018-08-12T12:42:14.013Z,45.98
2018-08-12T12:44:07.021Z,45.79
2018-08-12T12:45:07.088Z,45.89
2018-08-12T12:47:00.100Z,47.05
2018-08-12T12:48:00.164Z,49.87
2018-08-12T12:49:53.166Z,48.83
2018-08-12T12:50:53.242Z,45.52
2018-08-12T12:52:46.250Z,47.47
2018-08-12T12:53:46.313Z,47.08
2018-08-12T12:55:39.326Z,46.11
2018-08-12T12:56:39.393Z,46.23
2018-08-12T12:58:32.404Z,45.14
2018-08-12T12:59:32.477Z,43.77
2018-08-12T13:01:25.487Z,44.86
2018-08-12T13:02:25.561Z,43.50
2018-08-12T13:04:18.551Z,44.06
2018-08-12T13:05:18.615Z,43.07
2018-08-12T13:07:11.624Z,44.43
2018-08-12T13:08:11.689Z,44.82
2018-08-12T13:10:04.687Z,44.92
2018-08-12T13:11:04.757Z,45.21
2018-08-12T13:12:57.763Z,44.53
2018-08-12T13:13:57.827Z,44.35
2018-08-12T13:15:51.344Z,43.48
2018-08-12T13:16:51.404Z,43.96
2018-08-12T13:18:44.411Z,44.18
2018-08-12T13:19:44.477Z,43.19
2018-08-12T13:21:37.483Z,44.06
2018-08-12T13:22:37.546Z,43.67
2018-08-12T13:24:30.549Z,43.60
2018-08-12T13:25:30.615Z,44.06
2018-08-12T13:27:23.627Z,43.19
2018-08-12T13:28:23.685Z,43.50
2018-08-12T13:30:16.689Z,43.40
2018-08-12T13:31:16.758Z,44.48
2018-08-12T13:33:09.833Z,43.21
2018-08-12T13:34:09.827Z,43.71
2018-08-12T13:36:02.838Z,42.94
2018-08-12T13:37:02.902Z,43.70
2018-08-12T13:38:55.905Z,43.62
2018-08-12T13:39:55.972Z,43.91
2018-08-12T13:41:48.976Z,42.72
2018-08-12T13:42:49.043Z,43.21
2018-08-12T13:44:42.044Z,42.82
2018-08-12T13:45:42.111Z,43.01
2018-08-12T13:47:35.122Z,43.58
2018-08-12T13:48:35.180Z,45.04
2018-08-12T13:50:28.184Z,44.28
2018-08-12T13:51:28.251Z,43.01
2018-08-12T13:53:21.260Z,43.30
2018-08-12T13:54:21.323Z,42.91
2018-08-12T13:56:14.329Z,44.45
2018-08-12T13:57:14.393Z,43.21
2018-08-12T13:59:07.401Z,43.60
2018-08-12T14:00:07.463Z,43.70
2018-08-12T14:02:00.476Z,44.28
2018-08-12T14:03:00.535Z,43.60
2018-08-12T14:04:53.540Z,44.18
2018-08-12T14:05:53.607Z,43.70
2018-08-12T14:07:46.618Z,43.79
2018-08-12T14:08:46.684Z,43.01
2018-08-12T14:10:39.680Z,42.94
2018-08-12T14:11:39.748Z,42.45
2018-08-12T14:13:32.772Z,43.33
2018-08-12T14:14:32.822Z,42.91
2018-08-12T14:16:26.339Z,42.63
2018-08-12T14:17:26.403Z,42.53
2018-08-12T14:19:19.401Z,42.45
2018-08-12T14:20:19.471Z,42.72
2018-08-12T14:22:12.480Z,43.40
2018-08-12T14:23:12.539Z,43.13
2018-08-12T14:25:05.541Z,42.84
2018-08-12T14:26:05.611Z,42.74
2018-08-12T14:27:58.623Z,41.38
2018-08-12T14:28:58.683Z,42.45
2018-08-12T14:30:51.687Z,42.25
2018-08-12T14:31:51.752Z,41.77
2018-08-12T14:33:44.761Z,42.45
2018-08-12T14:34:44.823Z,41.77
2018-08-12T14:36:37.834Z,43.70
2018-08-12T14:37:37.975Z,43.04
2018-08-12T14:39:30.898Z,44.40
2018-08-12T14:40:30.979Z,44.01
2018-08-12T14:42:23.975Z,43.33
2018-08-12T14:43:24.042Z,42.84
2018-08-12T14:45:17.043Z,41.85
2018-08-12T14:46:17.108Z,41.26
2018-08-12T14:48:10.118Z,42.91
2018-08-12T14:49:10.180Z,43.21
2018-08-12T14:51:03.195Z,42.91
2018-08-12T14:52:03.251Z,42.53
2018-08-12T14:53:56.257Z,41.46
2018-08-12T14:54:56.321Z,41.16
2018-08-12T14:56:49.329Z,42.04
2018-08-12T14:57:49.489Z,42.72
2018-08-12T14:59:42.397Z,42.24
2018-08-12T15:00:42.465Z,42.24
2018-08-12T15:02:35.474Z,42.72
2018-08-12T15:03:35.533Z,41.65
2018-08-12T15:05:28.534Z,41.19
2018-08-12T15:06:28.605Z,40.68
2018-08-12T15:08:21.617Z,42.72
2018-08-12T15:09:21.676Z,42.72
2018-08-12T15:11:14.678Z,41.55
2018-08-12T15:12:14.748Z,41.34
2018-08-12T15:14:07.758Z,41.53
2018-08-12T15:15:07.865Z,41.93
2018-08-12T15:17:00.826Z,42.50
2018-08-12T15:18:00.890Z,43.19
2018-08-12T15:19:53.893Z,42.70
2018-08-12T15:20:53.966Z,41.44
2018-08-12T15:22:47.010Z,41.14
2018-08-12T15:23:47.032Z,42.72
2018-08-12T15:25:40.034Z,41.44
2018-08-12T15:26:40.104Z,41.05
2018-08-12T15:28:33.109Z,42.24
2018-08-12T15:29:33.171Z,42.24
2018-08-12T15:31:26.172Z,42.24
2018-08-12T15:32:26.245Z,40.88
2018-08-12T15:34:19.249Z,40.27
2018-08-12T15:35:19.311Z,41.05
2018-08-12T15:37:12.319Z,42.60
2018-08-12T15:38:12.385Z,42.31
2018-08-12T15:40:05.382Z,41.44
2018-08-12T15:41:05.451Z,42.21
2018-08-12T15:42:58.462Z,41.93
2018-08-12T15:43:58.523Z,41.14
2018-08-12T15:45:51.530Z,40.66
2018-08-12T15:46:51.597Z,40.95
2018-08-12T15:48:44.602Z,41.83
2018-08-12T15:49:44.688Z,41.05
2018-08-12T15:51:37.669Z,40.66
2018-08-12T15:52:37.738Z,40.85
2018-08-12T15:54:30.745Z,40.75
2018-08-12T15:55:30.808Z,41.32
2018-08-12T15:57:23.820Z,41.34
2018-08-12T15:58:23.880Z,41.63
2018-08-12T16:00:16.885Z,41.53
2018-08-12T16:01:16.952Z,41.05
2018-08-12T16:03:09.958Z,41.14
2018-08-12T16:04:10.024Z,41.44
2018-08-12T16:06:03.021Z,42.60
2018-08-12T16:07:03.091Z,41.44
2018-08-12T16:08:56.105Z,41.63
2018-08-12T16:09:56.162Z,41.65
2018-08-12T16:11:49.166Z,41.16
2018-08-12T16:12:49.242Z,42.60
2018-08-12T16:14:42.243Z,40.47
2018-08-12T16:15:42.305Z,40.95
2018-08-12T16:17:35.313Z,40.17
2018-08-12T16:18:35.375Z,40.47
2018-08-12T16:20:28.381Z,40.58
2018-08-12T16:21:28.447Z,39.98
2018-08-12T16:23:21.455Z,40.66
2018-08-12T16:24:21.519Z,41.34
2018-08-12T16:26:14.521Z,40.95
2018-08-12T16:27:14.589Z,40.95
2018-08-12T16:29:07.601Z,41.13
2018-08-12T16:30:07.663Z,42.10
2018-08-12T16:32:00.672Z,40.93
2018-08-12T16:33:00.736Z,40.54
2018-08-12T16:34:53.745Z,40.54
2018-08-12T16:35:53.808Z,40.44
2018-08-12T16:37:46.813Z,40.93
2018-08-12T16:38:46.879Z,41.22
2018-08-12T16:40:39.930Z,41.51
2018-08-12T16:41:39.945Z,40.64
2018-08-12T16:43:32.952Z,41.13
2018-08-12T16:44:33.016Z,41.51
2018-08-12T16:46:26.019Z,41.32
2018-08-12T16:47:26.087Z,40.93
2018-08-12T16:49:19.114Z,41.49
2018-08-12T16:50:19.156Z,41.51
2018-08-12T16:52:12.156Z,41.51
2018-08-12T16:53:12.226Z,41.61
2018-08-12T16:55:05.269Z,41.13
2018-08-12T16:56:05.330Z,41.71
2018-08-12T16:57:58.335Z,41.69
2018-08-12T16:58:58.400Z,41.69
2018-08-12T17:00:51.400Z,41.01
2018-08-12T17:01:51.465Z,41.59
2018-08-12T17:03:44.474Z,41.80
2018-08-12T17:04:44.537Z,41.42
2018-08-12T17:06:37.542Z,41.90
2018-08-12T17:07:37.610Z,42.58
2018-08-12T17:09:30.621Z,41.61
2018-08-12T17:10:30.681Z,41.61
2018-08-12T17:12:23.705Z,42.49
2018-08-12T17:13:23.753Z,41.80
2018-08-12T17:15:16.766Z,41.71
2018-08-12T17:16:16.822Z,41.51
2018-08-12T17:18:09.833Z,42.39
2018-08-12T17:19:09.891Z,42.58
2018-08-12T17:21:02.892Z,43.07
2018-08-12T17:22:02.960Z,42.19
2018-08-12T17:23:55.972Z,41.61
2018-08-12T17:24:56.034Z,43.36
2018-08-12T17:26:49.037Z,43.16
2018-08-12T17:27:49.106Z,41.22
2018-08-12T17:29:42.113Z,42.18
2018-08-12T17:30:42.174Z,42.66
2018-08-12T17:32:35.266Z,42.46
2018-08-12T17:33:35.251Z,41.39
2018-08-12T17:35:28.256Z,42.46
2018-08-12T17:36:28.319Z,41.01
2018-08-12T17:38:21.334Z,41.49
2018-08-12T17:39:21.394Z,41.69
2018-08-12T17:41:14.398Z,40.72
2018-08-12T17:42:14.460Z,41.28
2018-08-12T17:44:07.473Z,42.83
2018-08-12T17:45:07.533Z,42.54
2018-08-12T17:47:00.535Z,40.99
2018-08-12T17:48:00.611Z,41.57
2018-08-12T17:49:53.608Z,41.96
2018-08-12T17:50:53.676Z,41.38
2018-08-12T17:52:46.676Z,41.77
2018-08-12T17:53:46.745Z,41.28
2018-08-12T17:55:39.753Z,42.33
2018-08-12T17:56:39.812Z,42.03
2018-08-12T17:58:32.826Z,41.45
2018-08-12T17:59:32.884Z,41.64
2018-08-12T18:01:25.888Z,41.26
2018-08-12T18:02:25.952Z,42.71
2018-08-12T18:04:18.957Z,43.18
2018-08-12T18:05:19.032Z,45.61
2018-08-12T18:07:12.019Z,42.60
2018-08-12T18:08:12.088Z,44.34
2018-08-12T18:10:05.093Z,45.02
2018-08-12T18:11:05.154Z,42.99
2018-08-12T18:12:58.153Z,41.80
2018-08-12T18:13:58.222Z,44.42
2018-08-12T18:15:51.735Z,42.96
2018-08-12T18:16:51.795Z,43.45
2018-08-12T18:18:44.804Z,44.32
2018-08-12T18:19:44.865Z,43.35
2018-08-12T18:21:37.877Z,43.84
2018-08-12T18:22:37.935Z,44.23
2018-08-12T18:24:30.941Z,44.10
2018-08-12T18:25:31.003Z,43.04
2018-08-12T18:27:24.001Z,45.27
2018-08-12T18:28:24.069Z,44.78
2018-08-12T18:30:17.078Z,46.04
2018-08-12T18:31:17.138Z,47.02
2018-08-12T18:33:10.137Z,46.62
2018-08-12T18:34:10.204Z,48.27
2018-08-12T18:36:03.210Z,50.09
2018-08-12T18:37:03.272Z,50.29
2018-08-12T18:38:56.280Z,51.84
2018-08-12T18:39:56.342Z,53.49
2018-08-12T18:41:49.356Z,60.43
2018-08-12T18:42:49.413Z,58.01
2018-08-12T18:44:42.431Z,57.53
2018-08-12T18:45:42.486Z,56.85